sensor_id;sensor_type;location;lat;lon;timestamp;P1;durP1;ratioP1;P2;durP2;ratioP2
14592;SDS011;7383;52.354;9.756;2023-03-01T00:02:21;5.28;;;4.78;;
14592;SDS011;7383;52.354;9.756;2023-03-01T00:04:47;4.90;;;4.45;;
14592;SDS011;7383;52.354;9.756;2023-03-01T00:07:14;5.18;;;4.78;;
14592;SDS011;7383;52.354;9.756;2023-03-01T00:09:41;5.60;;;4.97;;
14592;SDS011;7383;52.354;9.756;2023-03-01T00:12:07;5.18;;;4.68;;
14592;SDS011;7383;52.354;9.756;2023-03-01T00:14:35;5.55;;;5.13;;
14592;SDS011;7383;52.354;9.756;2023-03-01T00:17:02;5.70;;;5.05;;
14592;SDS011;7383;52.354;9.756;2023-03-01T00:19:28;5.50;;;5.00;;
14592;SDS011;7383;52.354;9.756;2023-03-01T00:21:55;5.25;;;4.82;;
14592;SDS011;7383;52.354;9.756;2023-03-01T00:24:21;5.60;;;5.10;;
14592;SDS011;7383;52.354;9.756;2023-03-01T00:26:48;5.85;;;5.20;;
14592;SDS011;7383;52.354;9.756;2023-03-01T00:29:14;5.03;;;4.63;;
14592;SDS011;7383;52.354;9.756;2023-03-01T00:31:42;4.70;;;4.30;;
14592;SDS011;7383;52.354;9.756;2023-03-01T00:34:09;5.00;;;4.60;;
14592;SDS011;7383;52.354;9.756;2023-03-01T00:36:36;5.13;;;4.63;;
14592;SDS011;7383;52.354;9.756;2023-03-01T00:39:03;5.25;;;4.85;;
14592;SDS011;7383;52.354;9.756;2023-03-01T00:41:31;5.80;;;5.30;;
14592;SDS011;7383;52.354;9.756;2023-03-01T00:43:59;4.93;;;4.53;;
14592;SDS011;7383;52.354;9.756;2023-03-01T00:46:26;5.47;;;4.97;;
14592;SDS011;7383;52.354;9.756;2023-03-01T00:48:56;5.43;;;4.93;;
14592;SDS011;7383;52.354;9.756;2023-03-01T00:51:23;5.57;;;4.93;;
14592;SDS011;7383;52.354;9.756;2023-03-01T00:53:51;5.57;;;4.97;;
14592;SDS011;7383;52.354;9.756;2023-03-01T00:56:19;5.88;;;5.38;;
14592;SDS011;7383;52.354;9.756;2023-03-01T00:58:46;5.43;;;4.93;;
14592;SDS011;7383;52.354;9.756;2023-03-01T01:01:14;5.35;;;4.88;;
14592;SDS011;7383;52.354;9.756;2023-03-01T01:03:46;5.40;;;4.90;;
14592;SDS011;7383;52.354;9.756;2023-03-01T01:06:15;5.07;;;4.68;;
14592;SDS011;7383;52.354;9.756;2023-03-01T01:08:43;6.05;;;5.32;;
14592;SDS011;7383;52.354;9.756;2023-03-01T01:11:09;5.40;;;4.95;;
14592;SDS011;7383;52.354;9.756;2023-03-01T01:13:37;5.93;;;5.00;;
14592;SDS011;7383;52.354;9.756;2023-03-01T01:16:04;7.93;;;5.60;;
14592;SDS011;7383;52.354;9.756;2023-03-01T01:18:32;5.10;;;4.70;;
14592;SDS011;7383;52.354;9.756;2023-03-01T01:21:02;5.20;;;4.75;;
14592;SDS011;7383;52.354;9.756;2023-03-01T01:23:31;5.47;;;4.97;;
14592;SDS011;7383;52.354;9.756;2023-03-01T01:26:02;5.25;;;4.75;;
14592;SDS011;7383;52.354;9.756;2023-03-01T01:28:29;4.72;;;4.35;;
14592;SDS011;7383;52.354;9.756;2023-03-01T01:30:56;5.03;;;4.63;;
14592;SDS011;7383;52.354;9.756;2023-03-01T01:33:22;4.97;;;4.47;;
14592;SDS011;7383;52.354;9.756;2023-03-01T01:35:49;5.82;;;5.25;;
14592;SDS011;7383;52.354;9.756;2023-03-01T01:38:15;5.38;;;4.88;;
14592;SDS011;7383;52.354;9.756;2023-03-01T01:40:44;5.35;;;4.85;;
14592;SDS011;7383;52.354;9.756;2023-03-01T01:43:13;5.30;;;4.80;;
14592;SDS011;7383;52.354;9.756;2023-03-01T01:45:45;4.72;;;4.38;;
14592;SDS011;7383;52.354;9.756;2023-03-01T01:48:12;5.10;;;4.60;;
14592;SDS011;7383;52.354;9.756;2023-03-01T01:50:42;5.60;;;5.10;;
14592;SDS011;7383;52.354;9.756;2023-03-01T01:53:10;6.45;;;4.90;;
14592;SDS011;7383;52.354;9.756;2023-03-01T01:55:43;5.40;;;4.90;;
14592;SDS011;7383;52.354;9.756;2023-03-01T01:58:15;5.50;;;5.00;;
14592;SDS011;7383;52.354;9.756;2023-03-01T02:00:45;5.22;;;4.80;;
14592;SDS011;7383;52.354;9.756;2023-03-01T02:03:13;5.18;;;4.78;;
14592;SDS011;7383;52.354;9.756;2023-03-01T02:05:44;4.90;;;4.40;;
14592;SDS011;7383;52.354;9.756;2023-03-01T02:08:16;5.30;;;4.80;;
14592;SDS011;7383;52.354;9.756;2023-03-01T02:10:44;5.32;;;4.55;;
14592;SDS011;7383;52.354;9.756;2023-03-01T02:13:14;5.95;;;4.68;;
14592;SDS011;7383;52.354;9.756;2023-03-01T02:15:40;5.07;;;4.63;;
14592;SDS011;7383;52.354;9.756;2023-03-01T02:18:09;5.50;;;4.85;;
14592;SDS011;7383;52.354;9.756;2023-03-01T02:20:39;5.57;;;5.07;;
14592;SDS011;7383;52.354;9.756;2023-03-01T02:23:11;5.78;;;5.13;;
14592;SDS011;7383;52.354;9.756;2023-03-01T02:25:41;4.85;;;4.45;;
14592;SDS011;7383;52.354;9.756;2023-03-01T02:28:21;5.10;;;4.70;;
14592;SDS011;7383;52.354;9.756;2023-03-01T02:30:52;5.82;;;4.95;;
14592;SDS011;7383;52.354;9.756;2023-03-01T02:33:37;5.68;;;5.13;;
14592;SDS011;7383;52.354;9.756;2023-03-01T02:36:06;5.45;;;4.95;;
14592;SDS011;7383;52.354;9.756;2023-03-01T02:38:38;5.43;;;4.95;;
14592;SDS011;7383;52.354;9.756;2023-03-01T02:41:05;6.70;;;4.90;;
14592;SDS011;7383;52.354;9.756;2023-03-01T02:43:35;5.22;;;4.82;;
14592;SDS011;7383;52.354;9.756;2023-03-01T02:46:03;5.50;;;5.00;;
14592;SDS011;7383;52.354;9.756;2023-03-01T02:48:39;4.85;;;4.45;;
14592;SDS011;7383;52.354;9.756;2023-03-01T02:51:14;5.10;;;4.70;;
14592;SDS011;7383;52.354;9.756;2023-03-01T02:53:53;5.22;;;4.72;;
14592;SDS011;7383;52.354;9.756;2023-03-01T02:56:34;4.78;;;4.40;;
14592;SDS011;7383;52.354;9.756;2023-03-01T02:59:02;5.07;;;4.68;;
14592;SDS011;7383;52.354;9.756;2023-03-01T03:01:29;5.80;;;5.30;;
14592;SDS011;7383;52.354;9.756;2023-03-01T03:04:01;5.18;;;4.78;;
14592;SDS011;7383;52.354;9.756;2023-03-01T03:06:28;5.40;;;4.95;;
14592;SDS011;7383;52.354;9.756;2023-03-01T03:08:55;5.28;;;4.78;;
14592;SDS011;7383;52.354;9.756;2023-03-01T03:11:21;5.18;;;4.78;;
14592;SDS011;7383;52.354;9.756;2023-03-01T03:13:48;5.90;;;5.32;;
14592;SDS011;7383;52.354;9.756;2023-03-01T03:16:16;5.50;;;5.00;;
14592;SDS011;7383;52.354;9.756;2023-03-01T03:18:43;6.40;;;5.20;;
14592;SDS011;7383;52.354;9.756;2023-03-01T03:21:09;5.97;;;5.40;;
14592;SDS011;7383;52.354;9.756;2023-03-01T03:23:37;6.03;;;5.43;;
14592;SDS011;7383;52.354;9.756;2023-03-01T03:26:04;6.13;;;5.53;;
14592;SDS011;7383;52.354;9.756;2023-03-01T03:28:31;7.35;;;5.53;;
14592;SDS011;7383;52.354;9.756;2023-03-01T03:30:59;5.88;;;5.40;;
14592;SDS011;7383;52.354;9.756;2023-03-01T03:33:29;5.80;;;5.30;;
14592;SDS011;7383;52.354;9.756;2023-03-01T03:35:56;5.95;;;5.28;;
14592;SDS011;7383;52.354;9.756;2023-03-01T03:38:23;5.68;;;5.10;;
14592;SDS011;7383;52.354;9.756;2023-03-01T03:40:51;6.03;;;5.53;;
14592;SDS011;7383;52.354;9.756;2023-03-01T03:43:37;6.13;;;5.57;;
14592;SDS011;7383;52.354;9.756;2023-03-01T03:46:06;6.45;;;5.85;;
14592;SDS011;7383;52.354;9.756;2023-03-01T03:48:35;5.72;;;5.22;;
14592;SDS011;7383;52.354;9.756;2023-03-01T03:51:03;6.32;;;5.82;;
14592;SDS011;7383;52.354;9.756;2023-03-01T03:53:31;6.22;;;5.63;;
14592;SDS011;7383;52.354;9.756;2023-03-01T03:56:00;5.97;;;5.47;;
14592;SDS011;7383;52.354;9.756;2023-03-01T03:58:27;6.20;;;5.60;;
14592;SDS011;7383;52.354;9.756;2023-03-01T04:00:54;5.60;;;5.10;;
14592;SDS011;7383;52.354;9.756;2023-03-01T04:03:28;6.57;;;5.97;;
14592;SDS011;7383;52.354;9.756;2023-03-01T04:05:59;5.82;;;5.32;;
14592;SDS011;7383;52.354;9.756;2023-03-01T04:08:27;6.47;;;5.88;;
14592;SDS011;7383;52.354;9.756;2023-03-01T04:11:03;6.13;;;5.55;;
14592;SDS011;7383;52.354;9.756;2023-03-01T04:14:00;6.15;;;5.55;;
14592;SDS011;7383;52.354;9.756;2023-03-01T04:16:31;5.60;;;5.10;;
14592;SDS011;7383;52.354;9.756;2023-03-01T04:19:00;5.82;;;5.25;;
14592;SDS011;7383;52.354;9.756;2023-03-01T04:21:28;5.68;;;5.10;;
14592;SDS011;7383;52.354;9.756;2023-03-01T04:23:58;5.78;;;5.18;;
14592;SDS011;7383;52.354;9.756;2023-03-01T04:26:27;5.72;;;5.22;;
14592;SDS011;7383;52.354;9.756;2023-03-01T04:28:53;6.85;;;6.07;;
14592;SDS011;7383;52.354;9.756;2023-03-01T04:31:22;6.80;;;6.13;;
14592;SDS011;7383;52.354;9.756;2023-03-01T04:33:55;6.22;;;5.63;;
14592;SDS011;7383;52.354;9.756;2023-03-01T04:36:23;6.50;;;5.80;;
14592;SDS011;7383;52.354;9.756;2023-03-01T04:38:54;6.40;;;5.80;;
14592;SDS011;7383;52.354;9.756;2023-03-01T04:41:39;6.20;;;5.60;;
14592;SDS011;7383;52.354;9.756;2023-03-01T04:44:08;6.57;;;5.97;;
14592;SDS011;7383;52.354;9.756;2023-03-01T04:46:58;6.40;;;5.82;;
14592;SDS011;7383;52.354;9.756;2023-03-01T04:49:41;5.88;;;5.38;;
14592;SDS011;7383;52.354;9.756;2023-03-01T04:52:14;7.18;;;6.45;;
14592;SDS011;7383;52.354;9.756;2023-03-01T04:54:50;6.38;;;5.80;;
14592;SDS011;7383;52.354;9.756;2023-03-01T04:57:18;6.03;;;5.43;;
14592;SDS011;7383;52.354;9.756;2023-03-01T04:59:45;6.32;;;5.72;;
14592;SDS011;7383;52.354;9.756;2023-03-01T05:02:11;6.13;;;5.53;;
14592;SDS011;7383;52.354;9.756;2023-03-01T05:04:38;6.47;;;5.80;;
14592;SDS011;7383;52.354;9.756;2023-03-01T05:07:04;6.93;;;6.13;;
14592;SDS011;7383;52.354;9.756;2023-03-01T05:09:31;6.15;;;5.55;;
14592;SDS011;7383;52.354;9.756;2023-03-01T05:12:02;6.53;;;5.93;;
14592;SDS011;7383;52.354;9.756;2023-03-01T05:14:31;6.30;;;5.70;;
14592;SDS011;7383;52.354;9.756;2023-03-01T05:17:44;7.63;;;6.30;;
14592;SDS011;7383;52.354;9.756;2023-03-01T05:20:07;5.82;;;5.22;;
14592;SDS011;7383;52.354;9.756;2023-03-01T05:22:40;7.35;;;5.72;;
14592;SDS011;7383;52.354;9.756;2023-03-01T05:25:15;6.25;;;5.65;;
14592;SDS011;7383;52.354;9.756;2023-03-01T05:27:45;6.35;;;5.75;;
14592;SDS011;7383;52.354;9.756;2023-03-01T05:30:12;5.55;;;5.05;;
14592;SDS011;7383;52.354;9.756;2023-03-01T05:32:40;6.45;;;5.80;;
14592;SDS011;7383;52.354;9.756;2023-03-01T05:35:12;6.30;;;5.70;;
14592;SDS011;7383;52.354;9.756;2023-03-01T05:37:45;6.32;;;5.72;;
14592;SDS011;7383;52.354;9.756;2023-03-01T05:40:14;6.45;;;5.88;;
14592;SDS011;7383;52.354;9.756;2023-03-01T05:42:46;6.43;;;5.80;;
14592;SDS011;7383;52.354;9.756;2023-03-01T05:45:16;6.75;;;6.15;;
14592;SDS011;7383;52.354;9.756;2023-03-01T05:47:46;6.88;;;6.28;;
14592;SDS011;7383;52.354;9.756;2023-03-01T05:50:22;7.18;;;6.38;;
14592;SDS011;7383;52.354;9.756;2023-03-01T05:53:03;6.82;;;6.22;;
14592;SDS011;7383;52.354;9.756;2023-03-01T05:55:57;6.10;;;5.53;;
14592;SDS011;7383;52.354;9.756;2023-03-01T05:58:27;7.75;;;6.30;;
14592;SDS011;7383;52.354;9.756;2023-03-01T06:00:54;7.05;;;6.35;;
14592;SDS011;7383;52.354;9.756;2023-03-01T06:03:20;6.57;;;6.07;;
14592;SDS011;7383;52.354;9.756;2023-03-01T06:05:47;6.80;;;6.15;;
14592;SDS011;7383;52.354;9.756;2023-03-01T06:08:20;6.47;;;5.88;;
14592;SDS011;7383;52.354;9.756;2023-03-01T06:10:59;5.88;;;5.38;;
14592;SDS011;7383;52.354;9.756;2023-03-01T06:13:26;6.50;;;5.90;;
14592;SDS011;7383;52.354;9.756;2023-03-01T06:21:34;6.40;;;5.82;;
14592;SDS011;7383;52.354;9.756;2023-03-01T06:22:55;7.43;;;5.97;;
14592;SDS011;7383;52.354;9.756;2023-03-01T06:32:40;6.32;;;5.80;;
14592;SDS011;7383;52.354;9.756;2023-03-01T06:35:14;6.57;;;5.93;;
14592;SDS011;7383;52.354;9.756;2023-03-01T06:37:43;6.40;;;5.90;;
14592;SDS011;7383;52.354;9.756;2023-03-01T06:40:12;7.32;;;6.00;;
14592;SDS011;7383;52.354;9.756;2023-03-01T06:42:48;6.90;;;6.20;;
14592;SDS011;7383;52.354;9.756;2023-03-01T06:45:16;6.70;;;6.00;;
14592;SDS011;7383;52.354;9.756;2023-03-01T06:47:49;8.30;;;7.50;;
14592;SDS011;7383;52.354;9.756;2023-03-01T06:50:16;7.38;;;6.55;;
14592;SDS011;7383;52.354;9.756;2023-03-01T06:52:46;6.80;;;6.22;;
14592;SDS011;7383;52.354;9.756;2023-03-01T06:55:35;7.00;;;6.30;;
14592;SDS011;7383;52.354;9.756;2023-03-01T06:58:02;7.00;;;6.30;;
14592;SDS011;7383;52.354;9.756;2023-03-01T07:00:29;6.55;;;5.95;;
14592;SDS011;7383;52.354;9.756;2023-03-01T07:02:59;6.43;;;5.93;;
14592;SDS011;7383;52.354;9.756;2023-03-01T07:05:32;6.60;;;5.88;;
14592;SDS011;7383;52.354;9.756;2023-03-01T07:08:19;6.78;;;6.07;;
14592;SDS011;7383;52.354;9.756;2023-03-01T07:10:45;6.30;;;5.70;;
14592;SDS011;7383;52.354;9.756;2023-03-01T07:13:18;7.22;;;6.32;;
14592;SDS011;7383;52.354;9.756;2023-03-01T07:15:44;7.15;;;6.45;;
14592;SDS011;7383;52.354;9.756;2023-03-01T07:18:12;6.53;;;5.93;;
14592;SDS011;7383;52.354;9.756;2023-03-01T07:20:39;6.88;;;6.28;;
14592;SDS011;7383;52.354;9.756;2023-03-01T07:23:08;6.78;;;6.13;;
14592;SDS011;7383;52.354;9.756;2023-03-01T07:25:35;7.22;;;6.38;;
14592;SDS011;7383;52.354;9.756;2023-03-01T07:28:03;6.75;;;6.15;;
14592;SDS011;7383;52.354;9.756;2023-03-01T07:30:30;6.75;;;5.80;;
14592;SDS011;7383;52.354;9.756;2023-03-01T07:33:03;6.78;;;6.18;;
14592;SDS011;7383;52.354;9.756;2023-03-01T07:35:31;6.55;;;5.95;;
14592;SDS011;7383;52.354;9.756;2023-03-01T07:37:58;6.43;;;5.82;;
14592;SDS011;7383;52.354;9.756;2023-03-01T07:40:25;7.13;;;6.43;;
14592;SDS011;7383;52.354;9.756;2023-03-01T07:42:54;6.30;;;5.70;;
14592;SDS011;7383;52.354;9.756;2023-03-01T07:45:21;6.35;;;5.80;;
14592;SDS011;7383;52.354;9.756;2023-03-01T07:47:48;5.85;;;5.32;;
14592;SDS011;7383;52.354;9.756;2023-03-01T07:50:16;6.35;;;5.75;;
14592;SDS011;7383;52.354;9.756;2023-03-01T07:52:46;6.75;;;5.85;;
14592;SDS011;7383;52.354;9.756;2023-03-01T07:55:12;6.32;;;5.75;;
14592;SDS011;7383;52.354;9.756;2023-03-01T07:57:43;6.28;;;5.78;;
14592;SDS011;7383;52.354;9.756;2023-03-01T08:00:18;6.38;;;5.78;;
14592;SDS011;7383;52.354;9.756;2023-03-01T08:02:46;5.85;;;5.28;;
14592;SDS011;7383;52.354;9.756;2023-03-01T08:05:15;5.65;;;5.15;;
14592;SDS011;7383;52.354;9.756;2023-03-01T08:07:42;6.50;;;5.90;;
14592;SDS011;7383;52.354;9.756;2023-03-01T08:10:10;6.50;;;5.90;;
14592;SDS011;7383;52.354;9.756;2023-03-01T08:12:37;5.95;;;5.35;;
14592;SDS011;7383;52.354;9.756;2023-03-01T08:15:04;6.22;;;5.60;;
14592;SDS011;7383;52.354;9.756;2023-03-01T08:17:31;6.05;;;5.55;;
14592;SDS011;7383;52.354;9.756;2023-03-01T08:20:11;5.75;;;5.25;;
14592;SDS011;7383;52.354;9.756;2023-03-01T08:22:37;6.30;;;5.80;;
14592;SDS011;7383;52.354;9.756;2023-03-01T08:25:05;7.45;;;5.90;;
14592;SDS011;7383;52.354;9.756;2023-03-01T08:27:33;6.15;;;5.53;;
14592;SDS011;7383;52.354;9.756;2023-03-01T08:29:59;5.90;;;5.30;;
14592;SDS011;7383;52.354;9.756;2023-03-01T08:32:26;5.82;;;5.32;;
14592;SDS011;7383;52.354;9.756;2023-03-01T08:34:56;6.50;;;5.60;;
14592;SDS011;7383;52.354;9.756;2023-03-01T08:37:22;5.85;;;5.25;;
14592;SDS011;7383;52.354;9.756;2023-03-01T08:39:57;4.97;;;4.55;;
14592;SDS011;7383;52.354;9.756;2023-03-01T08:42:24;5.25;;;4.78;;
14592;SDS011;7383;52.354;9.756;2023-03-01T08:45:10;5.35;;;4.70;;
14592;SDS011;7383;52.354;9.756;2023-03-01T08:50:18;5.03;;;4.63;;
14592;SDS011;7383;52.354;9.756;2023-03-01T08:52:47;5.40;;;4.90;;
14592;SDS011;7383;52.354;9.756;2023-03-01T08:55:13;5.57;;;4.93;;
14592;SDS011;7383;52.354;9.756;2023-03-01T08:57:42;4.45;;;4.05;;
14592;SDS011;7383;52.354;9.756;2023-03-01T09:00:17;5.70;;;5.20;;
14592;SDS011;7383;52.354;9.756;2023-03-01T09:02:46;5.18;;;4.68;;
14592;SDS011;7383;52.354;9.756;2023-03-01T09:05:17;4.90;;;4.50;;
14592;SDS011;7383;52.354;9.756;2023-03-01T09:07:44;4.53;;;4.13;;
14592;SDS011;7383;52.354;9.756;2023-03-01T09:10:10;4.60;;;3.83;;
14592;SDS011;7383;52.354;9.756;2023-03-01T09:12:37;5.15;;;4.07;;
14592;SDS011;7383;52.354;9.756;2023-03-01T09:15:03;4.85;;;4.00;;
14592;SDS011;7383;52.354;9.756;2023-03-01T09:17:32;5.68;;;3.88;;
14592;SDS011;7383;52.354;9.756;2023-03-01T09:19:58;4.32;;;3.92;;
14592;SDS011;7383;52.354;9.756;2023-03-01T09:22:30;4.50;;;3.92;;
14592;SDS011;7383;52.354;9.756;2023-03-01T09:24:58;4.25;;;3.88;;
14592;SDS011;7383;52.354;9.756;2023-03-01T09:27:25;4.85;;;4.00;;
14592;SDS011;7383;52.354;9.756;2023-03-01T09:29:56;4.13;;;3.72;;
14592;SDS011;7383;52.354;9.756;2023-03-01T09:32:23;4.25;;;3.85;;
14592;SDS011;7383;52.354;9.756;2023-03-01T09:34:53;4.43;;;4.03;;
14592;SDS011;7383;52.354;9.756;2023-03-01T09:37:32;4.25;;;3.85;;
14592;SDS011;7383;52.354;9.756;2023-03-01T09:42:34;4.13;;;3.83;;
14592;SDS011;7383;52.354;9.756;2023-03-01T09:45:11;4.80;;;4.28;;
14592;SDS011;7383;52.354;9.756;2023-03-01T09:47:53;5.18;;;4.68;;
14592;SDS011;7383;52.354;9.756;2023-03-01T09:50:22;6.93;;;4.63;;
14592;SDS011;7383;52.354;9.756;2023-03-01T09:52:54;4.57;;;4.18;;
14592;SDS011;7383;52.354;9.756;2023-03-01T09:55:30;4.60;;;4.18;;
14592;SDS011;7383;52.354;9.756;2023-03-01T09:58:00;5.00;;;4.15;;
14592;SDS011;7383;52.354;9.756;2023-03-01T10:00:37;4.75;;;4.10;;
14592;SDS011;7383;52.354;9.756;2023-03-01T10:03:10;4.50;;;4.10;;
14592;SDS011;7383;52.354;9.756;2023-03-01T10:05:46;6.82;;;5.00;;
14592;SDS011;7383;52.354;9.756;2023-03-01T10:08:25;5.72;;;4.60;;
14592;SDS011;7383;52.354;9.756;2023-03-01T10:10:56;5.00;;;4.50;;
14592;SDS011;7383;52.354;9.756;2023-03-01T10:13:24;5.20;;;4.70;;
14592;SDS011;7383;52.354;9.756;2023-03-01T10:15:55;5.13;;;4.18;;
14592;SDS011;7383;52.354;9.756;2023-03-01T10:18:26;5.38;;;4.88;;
14592;SDS011;7383;52.354;9.756;2023-03-01T10:20:57;4.95;;;4.55;;
14592;SDS011;7383;52.354;9.756;2023-03-01T10:23:25;5.18;;;4.68;;
14592;SDS011;7383;52.354;9.756;2023-03-01T10:26:03;6.05;;;4.60;;
14592;SDS011;7383;52.354;9.756;2023-03-01T10:28:44;5.63;;;4.78;;
14592;SDS011;7383;52.354;9.756;2023-03-01T10:31:22;4.85;;;4.20;;
14592;SDS011;7383;52.354;9.756;2023-03-01T10:33:54;6.47;;;4.53;;
14592;SDS011;7383;52.354;9.756;2023-03-01T10:36:30;4.38;;;3.97;;
14592;SDS011;7383;52.354;9.756;2023-03-01T10:39:01;5.57;;;4.70;;
14592;SDS011;7383;52.354;9.756;2023-03-01T10:44:37;4.40;;;4.00;;
14592;SDS011;7383;52.354;9.756;2023-03-01T10:47:13;3.90;;;3.60;;
14592;SDS011;7383;52.354;9.756;2023-03-01T10:49:51;3.92;;;3.63;;
14592;SDS011;7383;52.354;9.756;2023-03-01T10:52:25;3.63;;;3.33;;
14592;SDS011;7383;52.354;9.756;2023-03-01T10:55:23;4.30;;;3.90;;
14592;SDS011;7383;52.354;9.756;2023-03-01T10:58:05;4.30;;;3.42;;
14592;SDS011;7383;52.354;9.756;2023-03-01T11:00:45;3.97;;;3.53;;
14592;SDS011;7383;52.354;9.756;2023-03-01T11:03:21;5.30;;;3.60;;
14592;SDS011;7383;52.354;9.756;2023-03-01T11:05:58;3.75;;;3.38;;
14592;SDS011;7383;52.354;9.756;2023-03-01T11:11:39;3.60;;;3.30;;
14592;SDS011;7383;52.354;9.756;2023-03-01T11:14:12;4.13;;;3.67;;
14592;SDS011;7383;52.354;9.756;2023-03-01T11:16:44;3.63;;;3.30;;
14592;SDS011;7383;52.354;9.756;2023-03-01T11:19:14;3.97;;;2.90;;
14592;SDS011;7383;52.354;9.756;2023-03-01T11:21:52;3.50;;;3.20;;
14592;SDS011;7383;52.354;9.756;2023-03-01T11:24:34;3.28;;;3.00;;
14592;SDS011;7383;52.354;9.756;2023-03-01T11:29:57;2.97;;;2.78;;
14592;SDS011;7383;52.354;9.756;2023-03-01T11:32:32;3.28;;;3.00;;
14592;SDS011;7383;52.354;9.756;2023-03-01T11:35:21;3.15;;;2.95;;
14592;SDS011;7383;52.354;9.756;2023-03-01T11:38:04;3.38;;;2.90;;
14592;SDS011;7383;52.354;9.756;2023-03-01T11:40:49;3.20;;;2.97;;
14592;SDS011;7383;52.354;9.756;2023-03-01T11:43:32;2.50;;;2.30;;
14592;SDS011;7383;52.354;9.756;2023-03-01T12:13:26;2.60;;;2.40;;
14592;SDS011;7383;52.354;9.756;2023-03-01T12:16:26;2.78;;;2.58;;
14592;SDS011;7383;52.354;9.756;2023-03-01T12:19:20;2.10;;;2.00;;
14592;SDS011;7383;52.354;9.756;2023-03-01T12:22:09;2.17;;;2.08;;
14592;SDS011;7383;52.354;9.756;2023-03-01T12:24:54;2.58;;;2.38;;
14592;SDS011;7383;52.354;9.756;2023-03-01T12:30:34;2.35;;;2.25;;
14592;SDS011;7383;52.354;9.756;2023-03-01T12:33:19;2.35;;;2.13;;
14592;SDS011;7383;52.354;9.756;2023-03-01T12:36:06;2.30;;;2.17;;
14592;SDS011;7383;52.354;9.756;2023-03-01T12:38:59;2.20;;;2.10;;
14592;SDS011;7383;52.354;9.756;2023-03-01T12:41:48;2.95;;;2.47;;
14592;SDS011;7383;52.354;9.756;2023-03-01T12:44:45;2.40;;;2.30;;
14592;SDS011;7383;52.354;9.756;2023-03-01T12:50:36;2.22;;;2.13;;
14592;SDS011;7383;52.354;9.756;2023-03-01T12:53:10;2.30;;;2.20;;
14592;SDS011;7383;52.354;9.756;2023-03-01T12:55:53;2.42;;;2.25;;
14592;SDS011;7383;52.354;9.756;2023-03-01T12:59:27;2.00;;;1.90;;
14592;SDS011;7383;52.354;9.756;2023-03-01T13:01:52;2.40;;;2.28;;
14592;SDS011;7383;52.354;9.756;2023-03-01T13:04:30;2.70;;;2.50;;
14592;SDS011;7383;52.354;9.756;2023-03-01T13:07:19;2.20;;;2.10;;
14592;SDS011;7383;52.354;9.756;2023-03-01T13:09:55;2.38;;;2.28;;
14592;SDS011;7383;52.354;9.756;2023-03-01T13:12:45;2.53;;;2.42;;
14592;SDS011;7383;52.354;9.756;2023-03-01T13:18:11;2.80;;;2.60;;
14592;SDS011;7383;52.354;9.756;2023-03-01T13:21:02;2.28;;;2.17;;
14592;SDS011;7383;52.354;9.756;2023-03-01T13:23:35;2.55;;;2.38;;
14592;SDS011;7383;52.354;9.756;2023-03-01T13:26:06;2.38;;;2.28;;
14592;SDS011;7383;52.354;9.756;2023-03-01T13:28:46;2.60;;;2.40;;
14592;SDS011;7383;52.354;9.756;2023-03-01T13:34:50;2.92;;;2.72;;
14592;SDS011;7383;52.354;9.756;2023-03-01T13:37:46;2.70;;;2.50;;
14592;SDS011;7383;52.354;9.756;2023-03-01T13:43:33;2.42;;;2.33;;
14592;SDS011;7383;52.354;9.756;2023-03-01T13:46:08;2.80;;;2.63;;
14592;SDS011;7383;52.354;9.756;2023-03-01T13:48:38;2.70;;;2.50;;
14592;SDS011;7383;52.354;9.756;2023-03-01T13:51:09;3.00;;;2.80;;
14592;SDS011;7383;52.354;9.756;2023-03-01T13:53:46;3.00;;;2.70;;
14592;SDS011;7383;52.354;9.756;2023-03-01T13:56:25;2.65;;;2.45;;
14592;SDS011;7383;52.354;9.756;2023-03-01T14:02:14;2.80;;;2.60;;
14592;SDS011;7383;52.354;9.756;2023-03-01T14:04:56;2.78;;;2.58;;
14592;SDS011;7383;52.354;9.756;2023-03-01T14:07:50;3.35;;;3.15;;
14592;SDS011;7383;52.354;9.756;2023-03-01T14:13:22;2.80;;;2.60;;
14592;SDS011;7383;52.354;9.756;2023-03-01T14:16:11;2.28;;;2.17;;
14592;SDS011;7383;52.354;9.756;2023-03-01T14:18:59;2.38;;;2.28;;
14592;SDS011;7383;52.354;9.756;2023-03-01T14:21:58;2.47;;;2.28;;
14592;SDS011;7383;52.354;9.756;2023-03-01T14:25:04;2.30;;;2.20;;
14592;SDS011;7383;52.354;9.756;2023-03-01T14:34:24;2.10;;;2.00;;
14592;SDS011;7383;52.354;9.756;2023-03-01T14:37:15;2.30;;;2.20;;
14592;SDS011;7383;52.354;9.756;2023-03-01T14:39:49;2.35;;;2.15;;
14592;SDS011;7383;52.354;9.756;2023-03-01T14:42:21;2.35;;;2.15;;
14592;SDS011;7383;52.354;9.756;2023-03-01T14:45:16;1.90;;;1.80;;
14592;SDS011;7383;52.354;9.756;2023-03-01T14:48:24;2.22;;;2.13;;
14592;SDS011;7383;52.354;9.756;2023-03-01T14:51:16;1.95;;;1.85;;
14592;SDS011;7383;52.354;9.756;2023-03-01T14:53:57;1.90;;;1.77;;
14592;SDS011;7383;52.354;9.756;2023-03-01T14:56:43;1.98;;;1.88;;
14592;SDS011;7383;52.354;9.756;2023-03-01T14:59:25;1.90;;;1.80;;
14592;SDS011;7383;52.354;9.756;2023-03-01T15:01:54;2.40;;;2.20;;
14592;SDS011;7383;52.354;9.756;2023-03-01T15:10:27;2.17;;;2.08;;
14592;SDS011;7383;52.354;9.756;2023-03-01T15:13:11;2.10;;;2.00;;
14592;SDS011;7383;52.354;9.756;2023-03-01T15:15:45;2.05;;;1.95;;
14592;SDS011;7383;52.354;9.756;2023-03-01T15:18:19;2.00;;;1.90;;
14592;SDS011;7383;52.354;9.756;2023-03-01T15:20:52;2.08;;;1.98;;
14592;SDS011;7383;52.354;9.756;2023-03-01T15:23:32;2.00;;;1.90;;
14592;SDS011;7383;52.354;9.756;2023-03-01T15:26:22;2.15;;;2.05;;
14592;SDS011;7383;52.354;9.756;2023-03-01T15:29:21;2.10;;;2.00;;
14592;SDS011;7383;52.354;9.756;2023-03-01T15:31:55;2.00;;;1.90;;
14592;SDS011;7383;52.354;9.756;2023-03-01T15:34:30;2.20;;;2.00;;
14592;SDS011;7383;52.354;9.756;2023-03-01T15:37:02;2.17;;;2.08;;
14592;SDS011;7383;52.354;9.756;2023-03-01T15:39:37;2.42;;;1.90;;
14592;SDS011;7383;52.354;9.756;2023-03-01T15:42:08;2.00;;;1.90;;
14592;SDS011;7383;52.354;9.756;2023-03-01T15:44:37;2.40;;;2.20;;
14592;SDS011;7383;52.354;9.756;2023-03-01T15:47:08;2.17;;;2.00;;
14592;SDS011;7383;52.354;9.756;2023-03-01T15:49:50;2.20;;;2.10;;
14592;SDS011;7383;52.354;9.756;2023-03-01T15:52:22;2.03;;;1.92;;
14592;SDS011;7383;52.354;9.756;2023-03-01T15:54:55;2.17;;;2.08;;
14592;SDS011;7383;52.354;9.756;2023-03-01T15:57:26;1.90;;;1.80;;
14592;SDS011;7383;52.354;9.756;2023-03-01T15:59:53;1.95;;;1.85;;
14592;SDS011;7383;52.354;9.756;2023-03-01T16:02:20;2.22;;;2.08;;
14592;SDS011;7383;52.354;9.756;2023-03-01T16:04:47;2.22;;;2.00;;
14592;SDS011;7383;52.354;9.756;2023-03-01T16:07:18;2.20;;;2.00;;
14592;SDS011;7383;52.354;9.756;2023-03-01T16:12:42;3.65;;;1.95;;
14592;SDS011;7383;52.354;9.756;2023-03-01T16:15:13;2.05;;;1.95;;
14592;SDS011;7383;52.354;9.756;2023-03-01T16:17:48;1.92;;;1.83;;
14592;SDS011;7383;52.354;9.756;2023-03-01T16:20:17;2.45;;;2.35;;
14592;SDS011;7383;52.354;9.756;2023-03-01T16:22:44;2.38;;;2.13;;
14592;SDS011;7383;52.354;9.756;2023-03-01T16:25:17;1.92;;;1.83;;
14592;SDS011;7383;52.354;9.756;2023-03-01T16:27:47;2.00;;;1.90;;
14592;SDS011;7383;52.354;9.756;2023-03-01T16:30:17;2.10;;;2.00;;
14592;SDS011;7383;52.354;9.756;2023-03-01T16:32:46;2.70;;;2.50;;
14592;SDS011;7383;52.354;9.756;2023-03-01T16:35:27;2.33;;;2.22;;
14592;SDS011;7383;52.354;9.756;2023-03-01T16:37:58;2.22;;;2.03;;
14592;SDS011;7383;52.354;9.756;2023-03-01T16:40:28;2.05;;;1.88;;
14592;SDS011;7383;52.354;9.756;2023-03-01T16:42:58;2.65;;;2.10;;
14592;SDS011;7383;52.354;9.756;2023-03-01T16:45:28;2.60;;;1.90;;
14592;SDS011;7383;52.354;9.756;2023-03-01T16:48:01;2.42;;;2.22;;
14592;SDS011;7383;52.354;9.756;2023-03-01T16:50:29;2.50;;;2.30;;
14592;SDS011;7383;52.354;9.756;2023-03-01T16:52:56;2.38;;;2.17;;
14592;SDS011;7383;52.354;9.756;2023-03-01T17:01:24;2.25;;;2.05;;
14592;SDS011;7383;52.354;9.756;2023-03-01T17:03:51;1.98;;;1.88;;
14592;SDS011;7383;52.354;9.756;2023-03-01T17:06:18;1.90;;;1.80;;
14592;SDS011;7383;52.354;9.756;2023-03-01T17:08:49;2.20;;;2.00;;
14592;SDS011;7383;52.354;9.756;2023-03-01T17:11:17;1.90;;;1.80;;
14592;SDS011;7383;52.354;9.756;2023-03-01T17:13:45;2.10;;;2.00;;